Fesco Vladimir — 5BSL2 — position and weather

sailwx.info

Track history (hours):
 
Tides and Currents Weather Stations Pressure Air Temp Water Temp Dewpoint Dewpoint Depression Visibility Wind Speed Wind Dir Waves Ship Positions

Fesco Vladimir

Last reported at 2017-Mar-24 01:17 UTC. Time now 2017-Mar-24 02:15 UTC.
Position N 53°05' E 004°14'.

Length 184 m; draft 10 m.

Type: Ship (hazmat cat A). MMSI: 209777000.

Date/timePositionNaut miles runAvg speedWind from/ knotsBaromVisibWave heightAir tempDewpointWater temp
2017-Mar-24 01:17N 53°05' E 004°14'1014.2
2017-Mar-24 00:33N 53°12' E 004°26'2015.1
2017-Mar-23 23:15N 53°31' E 004°37'32314.2
2017-Mar-23 00:30N 57°48' E 010°22'1111.4
2017-Mar-22 23:33N 57°48' E 010°43'1212.1
2017-Mar-22 22:33N 57°41' E 010°60'1312.9
2017-Mar-22 21:33N 57°32' E 011°17'1312.8
2017-Mar-22 20:33N 57°21' E 011°30'1313.3
2017-Mar-22 19:33N 57°09' E 011°39'10812.0
2017-Mar-22 10:32N 55°22' E 011°02'1111.6
2017-Mar-22 09:33N 55°11' E 011°03'1212.0
2017-Mar-22 08:33N 54°59' E 010°59'1111.4
2017-Mar-22 07:33N 54°49' E 010°50'1010.2
2017-Mar-22 06:33N 54°39' E 010°52'1111.4
2017-Mar-22 05:33N 54°36' E 011°11'1312.6
2017-Mar-22 04:33N 54°31' E 011°31'1212.4
2017-Mar-22 03:33N 54°26' E 011°51'1211.7
2017-Mar-22 02:33N 54°27' E 012°11'1211.8
2017-Mar-22 01:33N 54°38' E 012°19'4312.4
2017-Mar-21 22:05N 54°56' E 013°26'712.2
2017-Mar-21 21:33N 54°59' E 013°37'1312.5
2017-Mar-21 20:32N 55°03' E 013°58'1212.6
2017-Mar-21 19:33N 55°11' E 014°14'1212.4
2017-Mar-21 18:34N 55°20' E 014°28'1212.2
2017-Mar-21 17:33N 55°29' E 014°44'1211.9
2017-Mar-21 16:33N 55°34' E 015°02'1212.2
2017-Mar-21 15:33N 55°41' E 015°20'1212.4
2017-Mar-21 14:33N 55°47' E 015°40'1212.4
2017-Mar-21 13:33N 55°53' E 015°59'1212.4
2017-Mar-21 12:33N 55°58' E 016°19'1212.5
2017-Mar-21 11:33N 56°05' E 016°37'1212.0
2017-Mar-21 10:33N 56°12' E 016°55'36012.4
2017-Mar-20 05:32N 59°56' E 025°48'1413.3
2017-Mar-20 04:30N 59°59' E 026°15'1213.1
2017-Mar-20 03:33N 60°01' E 026°39'1413.3
2017-Mar-20 02:30N 60°01' E 027°07'1515.5
2017-Mar-20 01:33N 60°08' E 027°32'1514.2
2017-Mar-20 00:31N 60°10' E 028°02'1515.1
2017-Mar-19 23:33N 60°04' E 028°28'1514.8
2017-Mar-19 22:33N 60°03' E 028°58'1514.5
2017-Mar-19 21:33N 60°02' E 029°27'7 6.9
2017-Mar-19 20:33N 59°60' E 029°40'4 3.5
2017-Mar-19 19:32N 59°56' E 029°42'0 0.0
2017-Mar-19 18:32N 59°56' E 029°42'0 0.0
2017-Mar-19 17:32N 59°56' E 029°42'0 0.0
2017-Mar-19 16:32N 59°56' E 029°42'0 0.0
2017-Mar-19 15:32N 59°56' E 029°42'0 0.0
2017-Mar-19 14:32N 59°56' E 029°42'0 0.0
2017-Mar-19 13:32N 59°56' E 029°41'0 0.0
2017-Mar-19 12:32N 59°56' E 029°42'0 0.0
2017-Mar-19 11:32N 59°56' E 029°42'1 1.0
2017-Mar-19 10:31N 59°57' E 029°43'2 2.4
2017-Mar-19 09:33N 59°58' E 029°47'1111.1
2017-Mar-19 08:33N 59°54' E 030°07'3 3.0
2017-Mar-19 07:32N 59°52' E 030°12'0 0.0
2017-Mar-19 06:32N 59°52' E 030°12'0 0.0
2017-Mar-19 05:32N 59°52' E 030°12'0 0.0
2017-Mar-19 04:32N 59°52' E 030°12'0 0.0
2017-Mar-19 03:32N 59°52' E 030°12'0 0.0
2017-Mar-19 02:32N 59°52' E 030°12'0 0.0
2017-Mar-19 01:32N 59°52' E 030°12'0 0.0
2017-Mar-19 00:32N 59°52' E 030°12'0 0.0
2017-Mar-18 23:32N 59°52' E 030°12'0 0.0
2017-Mar-18 22:32N 59°52' E 030°12'0 0.0
2017-Mar-18 21:32N 59°52' E 030°12'0 0.0
2017-Mar-18 20:32N 59°52' E 030°12'0 0.0
2017-Mar-18 19:32N 59°52' E 030°12'0 0.0
2017-Mar-18 18:32N 59°52' E 030°12'0 0.0
2017-Mar-18 17:32N 59°52' E 030°12'0 0.0
2017-Mar-18 16:32N 59°52' E 030°12'1 0.7
2017-Mar-18 15:31N 59°53' E 030°11'0 0.0
2017-Mar-18 14:31N 59°53' E 030°11'0 0.0
2017-Mar-18 13:31N 59°53' E 030°11'0 0.0
2017-Mar-18 12:31N 59°53' E 030°11'0 0.0
2017-Mar-18 11:31N 59°53' E 030°11'0 0.0
2017-Mar-18 10:31N 59°53' E 030°11'0 0.0
2017-Mar-18 09:31N 59°53' E 030°11'0 0.0
2017-Mar-18 08:31N 59°53' E 030°11'0 0.0
2017-Mar-18 07:31N 59°53' E 030°11'0 0.0
2017-Mar-18 06:31N 59°53' E 030°11'0 0.0
2017-Mar-18 05:31N 59°53' E 030°11'0 0.5
2017-Mar-18 04:33N 59°53' E 030°11'7 7.1
2017-Mar-18 03:33N 59°56' E 029°58'9 9.0
2017-Mar-18 02:33N 59°60' E 029°41'11 9.9
2017-Mar-18 01:26N 60°02' E 029°20'1517.4
2017-Mar-18 00:33N 60°02' E 028°49'1212.4
2017-Mar-17 23:33N 59°53' E 028°31'1312.8
2017-Mar-17 22:33N 59°41' E 028°24'1 0.6
2017-Mar-17 21:31N 59°40' E 028°24'0 0.0
2017-Mar-17 20:31N 59°40' E 028°24'0 0.0
2017-Mar-17 19:31N 59°40' E 028°24'0 0.0
2017-Mar-17 18:31N 59°40' E 028°24'0 0.0
2017-Mar-17 17:22N 59°40' E 028°24'0 0.0
2017-Mar-17 16:22N 59°40' E 028°24'0 0.0
2017-Mar-17 15:25N 59°40' E 028°24'0 0.0
2017-Mar-17 14:25N 59°40' E 028°24'0 0.0
2017-Mar-17 13:25N 59°40' E 028°24'0 0.0
2017-Mar-17 12:28N 59°40' E 028°24'0 0.0
2017-Mar-17 11:25N 59°40' E 028°24'0 0.2
2017-Mar-17 10:33N 59°41' E 028°24'5 5.2
2017-Mar-17 09:34N 59°46' E 028°24'1111.1
2017-Mar-17 08:34N 59°56' E 028°34'5 4.6
2017-Mar-17 07:33N 60°00' E 028°35'1414.4
2017-Mar-17 06:33N 60°08' E 028°10'1514.8
2017-Mar-17 05:33N 60°08' E 027°41'1615.8
2017-Mar-17 04:33N 60°01' E 027°13'1515.1
2017-Mar-17 03:33N 59°59' E 026°43'1716.6
2017-Mar-17 02:33N 59°55' E 026°10'1717.0
2017-Mar-17 01:33N 59°51' E 025°37'5717.0
2017-Mar-16 22:10N 59°36' E 023°47'30316.3
2017-Mar-16 03:32N 56°07' E 016°54'1515.4
2017-Mar-16 02:33N 55°58' E 016°32'1515.6
2017-Mar-16 01:33N 55°51' E 016°08'1615.6
2017-Mar-16 00:33N 55°43' E 015°44'1615.7
2017-Mar-15 23:33N 55°35' E 015°20'1615.6
2017-Mar-15 22:33N 55°28' E 014°56'1615.5
2017-Mar-15 21:33N 55°18' E 014°34'1515.5
2017-Mar-15 20:33N 55°06' E 014°17'1615.2
2017-Mar-15 19:32N 54°58' E 013°54'1515.7
2017-Mar-15 18:33N 54°53' E 013°29'2216.0
2017-Mar-15 17:12N 54°46' E 012°53'1015.3
2017-Mar-15 16:33N 54°42' E 012°37'1413.8
2017-Mar-15 15:33N 54°34' E 012°18'1212.5
2017-Mar-15 14:34N 54°25' E 012°05'1514.7
2017-Mar-15 13:34N 54°27' E 011°40'1717.0
2017-Mar-15 12:34N 54°34' E 011°14'1414.0
2017-Mar-15 11:33N 54°41' E 010°53'1414.3
2017-Mar-15 10:33N 54°56' E 010°55'1414.2
2017-Mar-15 09:34N 55°09' E 011°03'1413.1
2017-Mar-15 08:29N 55°23' E 011°00'4214.2
2017-Mar-15 05:31N 56°05' E 011°07'7014.0
2017-Mar-15 00:33N 57°13' E 011°34'1616.0
2017-Mar-14 23:33N 57°28' E 011°24'1616.2
2017-Mar-14 22:33N 57°39' E 011°02'1716.5
2017-Mar-14 21:33N 57°48' E 010°35'16614.9
2017-Mar-14 10:23N 55°51' E 006°60'1315.7
2017-Mar-14 09:33N 55°39' E 006°52'1717.2
2017-Mar-14 08:33N 55°22' E 006°43'1716.8
2017-Mar-14 07:33N 55°06' E 006°47'1615.9
2017-Mar-14 06:33N 54°50' E 006°53'1615.7
2017-Mar-14 05:33N 54°36' E 007°06'5016.0
2017-Mar-14 02:24N 54°01' E 008°08'1315.4
2017-Mar-14 01:33N 53°59' E 008°29'  
Track history (hours):
 
Tides and Currents Weather Stations Pressure Air Temp Water Temp Dewpoint Dewpoint Depression Visibility Wind Speed Wind Dir Waves Ship Positions

Fesco Vladimir

Last reported at 2017-Mar-24 01:17 UTC. Time now 2017-Mar-24 02:15 UTC.
Position N 53°05' E 004°14'.

Length 184 m; draft 10 m.

Type: Ship (hazmat cat A). MMSI: 209777000.

Date/timePositionNaut miles runAvg speedWind from/ knotsBaromVisibWave heightAir tempDewpointWater temp
2017-Mar-24 01:17N 53°05' E 004°14'1014.2
2017-Mar-24 00:33N 53°12' E 004°26'2015.1
2017-Mar-23 23:15N 53°31' E 004°37'32314.2
2017-Mar-23 00:30N 57°48' E 010°22'1111.4
2017-Mar-22 23:33N 57°48' E 010°43'1212.1
2017-Mar-22 22:33N 57°41' E 010°60'1312.9
2017-Mar-22 21:33N 57°32' E 011°17'1312.8
2017-Mar-22 20:33N 57°21' E 011°30'1313.3
2017-Mar-22 19:33N 57°09' E 011°39'10812.0
2017-Mar-22 10:32N 55°22' E 011°02'1111.6
2017-Mar-22 09:33N 55°11' E 011°03'1212.0
2017-Mar-22 08:33N 54°59' E 010°59'1111.4
2017-Mar-22 07:33N 54°49' E 010°50'1010.2
2017-Mar-22 06:33N 54°39' E 010°52'1111.4
2017-Mar-22 05:33N 54°36' E 011°11'1312.6
2017-Mar-22 04:33N 54°31' E 011°31'1212.4
2017-Mar-22 03:33N 54°26' E 011°51'1211.7
2017-Mar-22 02:33N 54°27' E 012°11'1211.8
2017-Mar-22 01:33N 54°38' E 012°19'4312.4
2017-Mar-21 22:05N 54°56' E 013°26'712.2
2017-Mar-21 21:33N 54°59' E 013°37'1312.5
2017-Mar-21 20:32N 55°03' E 013°58'1212.6
2017-Mar-21 19:33N 55°11' E 014°14'1212.4
2017-Mar-21 18:34N 55°20' E 014°28'1212.2
2017-Mar-21 17:33N 55°29' E 014°44'1211.9
2017-Mar-21 16:33N 55°34' E 015°02'1212.2
2017-Mar-21 15:33N 55°41' E 015°20'1212.4
2017-Mar-21 14:33N 55°47' E 015°40'1212.4
2017-Mar-21 13:33N 55°53' E 015°59'1212.4
2017-Mar-21 12:33N 55°58' E 016°19'1212.5
2017-Mar-21 11:33N 56°05' E 016°37'1212.0
2017-Mar-21 10:33N 56°12' E 016°55'36012.4
2017-Mar-20 05:32N 59°56' E 025°48'1413.3
2017-Mar-20 04:30N 59°59' E 026°15'1213.1
2017-Mar-20 03:33N 60°01' E 026°39'1413.3
2017-Mar-20 02:30N 60°01' E 027°07'1515.5
2017-Mar-20 01:33N 60°08' E 027°32'1514.2
2017-Mar-20 00:31N 60°10' E 028°02'1515.1
2017-Mar-19 23:33N 60°04' E 028°28'1514.8
2017-Mar-19 22:33N 60°03' E 028°58'1514.5
2017-Mar-19 21:33N 60°02' E 029°27'7 6.9
2017-Mar-19 20:33N 59°60' E 029°40'4 3.5
2017-Mar-19 19:32N 59°56' E 029°42'0 0.0
2017-Mar-19 18:32N 59°56' E 029°42'0 0.0
2017-Mar-19 17:32N 59°56' E 029°42'0 0.0
2017-Mar-19 16:32N 59°56' E 029°42'0 0.0
2017-Mar-19 15:32N 59°56' E 029°42'0 0.0
2017-Mar-19 14:32N 59°56' E 029°42'0 0.0
2017-Mar-19 13:32N 59°56' E 029°41'0 0.0
2017-Mar-19 12:32N 59°56' E 029°42'0 0.0
2017-Mar-19 11:32N 59°56' E 029°42'1 1.0
2017-Mar-19 10:31N 59°57' E 029°43'2 2.4
2017-Mar-19 09:33N 59°58' E 029°47'1111.1
2017-Mar-19 08:33N 59°54' E 030°07'3 3.0
2017-Mar-19 07:32N 59°52' E 030°12'0 0.0
2017-Mar-19 06:32N 59°52' E 030°12'0 0.0
2017-Mar-19 05:32N 59°52' E 030°12'0 0.0
2017-Mar-19 04:32N 59°52' E 030°12'0 0.0
2017-Mar-19 03:32N 59°52' E 030°12'0 0.0
2017-Mar-19 02:32N 59°52' E 030°12'0 0.0
2017-Mar-19 01:32N 59°52' E 030°12'0 0.0
2017-Mar-19 00:32N 59°52' E 030°12'0 0.0
2017-Mar-18 23:32N 59°52' E 030°12'0 0.0
2017-Mar-18 22:32N 59°52' E 030°12'0 0.0
2017-Mar-18 21:32N 59°52' E 030°12'0 0.0
2017-Mar-18 20:32N 59°52' E 030°12'0 0.0
2017-Mar-18 19:32N 59°52' E 030°12'0 0.0
2017-Mar-18 18:32N 59°52' E 030°12'0 0.0
2017-Mar-18 17:32N 59°52' E 030°12'0 0.0
2017-Mar-18 16:32N 59°52' E 030°12'1 0.7
2017-Mar-18 15:31N 59°53' E 030°11'0 0.0
2017-Mar-18 14:31N 59°53' E 030°11'0 0.0
2017-Mar-18 13:31N 59°53' E 030°11'0 0.0
2017-Mar-18 12:31N 59°53' E 030°11'0 0.0
2017-Mar-18 11:31N 59°53' E 030°11'0 0.0
2017-Mar-18 10:31N 59°53' E 030°11'0 0.0
2017-Mar-18 09:31N 59°53' E 030°11'0 0.0
2017-Mar-18 08:31N 59°53' E 030°11'0 0.0
2017-Mar-18 07:31N 59°53' E 030°11'0 0.0
2017-Mar-18 06:31N 59°53' E 030°11'0 0.0
2017-Mar-18 05:31N 59°53' E 030°11'0 0.5
2017-Mar-18 04:33N 59°53' E 030°11'7 7.1
2017-Mar-18 03:33N 59°56' E 029°58'9 9.0
2017-Mar-18 02:33N 59°60' E 029°41'11 9.9
2017-Mar-18 01:26N 60°02' E 029°20'1517.4
2017-Mar-18 00:33N 60°02' E 028°49'1212.4
2017-Mar-17 23:33N 59°53' E 028°31'1312.8
2017-Mar-17 22:33N 59°41' E 028°24'1 0.6
2017-Mar-17 21:31N 59°40' E 028°24'0 0.0
2017-Mar-17 20:31N 59°40' E 028°24'0 0.0
2017-Mar-17 19:31N 59°40' E 028°24'0 0.0
2017-Mar-17 18:31N 59°40' E 028°24'0 0.0
2017-Mar-17 17:22N 59°40' E 028°24'0 0.0
2017-Mar-17 16:22N 59°40' E 028°24'0 0.0
2017-Mar-17 15:25N 59°40' E 028°24'0 0.0
2017-Mar-17 14:25N 59°40' E 028°24'0 0.0
2017-Mar-17 13:25N 59°40' E 028°24'0 0.0
2017-Mar-17 12:28N 59°40' E 028°24'0 0.0
2017-Mar-17 11:25N 59°40' E 028°24'0 0.2
2017-Mar-17 10:33N 59°41' E 028°24'5 5.2
2017-Mar-17 09:34N 59°46' E 028°24'1111.1
2017-Mar-17 08:34N 59°56' E 028°34'5 4.6
2017-Mar-17 07:33N 60°00' E 028°35'1414.4
2017-Mar-17 06:33N 60°08' E 028°10'1514.8
2017-Mar-17 05:33N 60°08' E 027°41'1615.8
2017-Mar-17 04:33N 60°01' E 027°13'1515.1
2017-Mar-17 03:33N 59°59' E 026°43'1716.6
2017-Mar-17 02:33N 59°55' E 026°10'1717.0
2017-Mar-17 01:33N 59°51' E 025°37'5717.0
2017-Mar-16 22:10N 59°36' E 023°47'30316.3
2017-Mar-16 03:32N 56°07' E 016°54'1515.4
2017-Mar-16 02:33N 55°58' E 016°32'1515.6
2017-Mar-16 01:33N 55°51' E 016°08'1615.6
2017-Mar-16 00:33N 55°43' E 015°44'1615.7
2017-Mar-15 23:33N 55°35' E 015°20'1615.6
2017-Mar-15 22:33N 55°28' E 014°56'1615.5
2017-Mar-15 21:33N 55°18' E 014°34'1515.5
2017-Mar-15 20:33N 55°06' E 014°17'1615.2
2017-Mar-15 19:32N 54°58' E 013°54'1515.7
2017-Mar-15 18:33N 54°53' E 013°29'2216.0
2017-Mar-15 17:12N 54°46' E 012°53'1015.3
2017-Mar-15 16:33N 54°42' E 012°37'1413.8
2017-Mar-15 15:33N 54°34' E 012°18'1212.5
2017-Mar-15 14:34N 54°25' E 012°05'1514.7
2017-Mar-15 13:34N 54°27' E 011°40'1717.0
2017-Mar-15 12:34N 54°34' E 011°14'1414.0
2017-Mar-15 11:33N 54°41' E 010°53'1414.3
2017-Mar-15 10:33N 54°56' E 010°55'1414.2
2017-Mar-15 09:34N 55°09' E 011°03'1413.1
2017-Mar-15 08:29N 55°23' E 011°00'4214.2
2017-Mar-15 05:31N 56°05' E 011°07'7014.0
2017-Mar-15 00:33N 57°13' E 011°34'1616.0
2017-Mar-14 23:33N 57°28' E 011°24'1616.2
2017-Mar-14 22:33N 57°39' E 011°02'1716.5
2017-Mar-14 21:33N 57°48' E 010°35'16614.9
2017-Mar-14 10:23N 55°51' E 006°60'1315.7
2017-Mar-14 09:33N 55°39' E 006°52'1717.2
2017-Mar-14 08:33N 55°22' E 006°43'1716.8
2017-Mar-14 07:33N 55°06' E 006°47'1615.9
2017-Mar-14 06:33N 54°50' E 006°53'1615.7
2017-Mar-14 05:33N 54°36' E 007°06'5016.0
2017-Mar-14 02:24N 54°01' E 008°08'1315.4
2017-Mar-14 01:33N 53°59' E 008°29'  

Dump ship's entire track history